sensor_id;sensor_type;location;lat;lon;timestamp;pressure;altitude;pressure_sealevel;temperature;humidity
46614;BME280;32338;50.430;6.806;2023-08-06T00:00:51;66807.88;;;12.74;100.00
46614;BME280;32338;50.430;6.806;2023-08-06T00:03:18;66806.56;;;12.71;100.00
46614;BME280;32338;50.430;6.806;2023-08-06T00:05:45;66809.56;;;12.69;100.00
46614;BME280;32338;50.430;6.806;2023-08-06T00:08:12;66805.06;;;12.72;100.00
46614;BME280;32338;50.430;6.806;2023-08-06T00:10:39;66802.44;;;12.72;100.00
46614;BME280;32338;50.430;6.806;2023-08-06T00:13:06;66806.00;;;12.70;100.00
46614;BME280;32338;50.430;6.806;2023-08-06T00:15:33;66809.22;;;12.71;100.00
46614;BME280;32338;50.430;6.806;2023-08-06T00:17:59;66811.09;;;12.75;100.00
46614;BME280;32338;50.430;6.806;2023-08-06T00:20:26;66796.03;;;12.63;100.00
46614;BME280;32338;50.430;6.806;2023-08-06T00:22:52;66803.19;;;12.68;100.00
46614;BME280;32338;50.430;6.806;2023-08-06T00:25:20;66799.22;;;12.64;100.00
46614;BME280;32338;50.430;6.806;2023-08-06T00:27:47;66804.50;;;12.71;100.00
46614;BME280;32338;50.430;6.806;2023-08-06T00:30:13;66791.16;;;12.61;100.00
46614;BME280;32338;50.430;6.806;2023-08-06T00:32:40;66793.97;;;12.64;100.00
46614;BME280;32338;50.430;6.806;2023-08-06T00:35:07;66796.41;;;12.61;100.00
46614;BME280;32338;50.430;6.806;2023-08-06T00:37:33;66782.88;;;12.56;100.00
46614;BME280;32338;50.430;6.806;2023-08-06T00:40:00;66793.78;;;12.61;100.00
46614;BME280;32338;50.430;6.806;2023-08-06T00:42:28;66783.44;;;12.49;100.00
46614;BME280;32338;50.430;6.806;2023-08-06T00:44:54;66786.25;;;12.52;100.00
46614;BME280;32338;50.430;6.806;2023-08-06T00:47:21;66790.00;;;12.53;100.00
46614;BME280;32338;50.430;6.806;2023-08-06T00:49:48;66781.72;;;12.48;100.00
46614;BME280;32338;50.430;6.806;2023-08-06T00:52:14;66782.13;;;12.53;100.00
46614;BME280;32338;50.430;6.806;2023-08-06T00:54:41;66776.47;;;12.48;100.00
46614;BME280;32338;50.430;6.806;2023-08-06T00:57:09;66777.41;;;12.46;100.00
46614;BME280;32338;50.430;6.806;2023-08-06T00:59:37;66773.06;;;12.38;100.00
46614;BME280;32338;50.430;6.806;2023-08-06T01:02:04;66761.03;;;12.31;100.00
46614;BME280;32338;50.430;6.806;2023-08-06T01:04:31;66764.81;;;12.32;100.00
46614;BME280;32338;50.430;6.806;2023-08-06T01:07:04;66749.75;;;12.21;100.00
46614;BME280;32338;50.430;6.806;2023-08-06T01:09:42;66757.09;;;12.28;100.00
46614;BME280;32338;50.430;6.806;2023-08-06T01:12:20;66758.22;;;12.29;100.00
46614;BME280;32338;50.430;6.806;2023-08-06T01:14:55;66765.94;;;12.33;100.00
46614;BME280;32338;50.430;6.806;2023-08-06T01:17:24;66769.31;;;12.37;100.00
46614;BME280;32338;50.430;6.806;2023-08-06T01:19:51;66772.13;;;12.39;100.00
46614;BME280;32338;50.430;6.806;2023-08-06T01:22:19;66766.31;;;12.39;100.00
46614;BME280;32338;50.430;6.806;2023-08-06T01:24:49;66777.03;;;12.48;100.00
46614;BME280;32338;50.430;6.806;2023-08-06T01:27:21;66781.16;;;12.47;100.00
46614;BME280;32338;50.430;6.806;2023-08-06T01:29:56;66780.22;;;12.49;100.00
46614;BME280;32338;50.430;6.806;2023-08-06T01:32:24;66780.22;;;12.49;100.00
46614;BME280;32338;50.430;6.806;2023-08-06T01:34:54;66798.28;;;12.58;100.00
46614;BME280;32338;50.430;6.806;2023-08-06T01:37:22;66787.56;;;12.56;100.00
46614;BME280;32338;50.430;6.806;2023-08-06T01:39:49;66777.97;;;12.47;100.00
46614;BME280;32338;50.430;6.806;2023-08-06T01:42:15;66780.22;;;12.49;100.00
46614;BME280;32338;50.430;6.806;2023-08-06T01:44:42;66789.25;;;12.57;100.00
46614;BME280;32338;50.430;6.806;2023-08-06T01:47:08;66787.00;;;12.55;100.00
46614;BME280;32338;50.430;6.806;2023-08-06T01:49:35;66787.75;;;12.58;100.00
46614;BME280;32338;50.430;6.806;2023-08-06T01:52:02;66795.28;;;12.60;100.00
46614;BME280;32338;50.430;6.806;2023-08-06T01:54:30;66792.09;;;12.60;100.00
46614;BME280;32338;50.430;6.806;2023-08-06T01:56:56;66798.28;;;12.65;100.00
46614;BME280;32338;50.430;6.806;2023-08-06T01:59:23;66791.50;;;12.59;100.00
46614;BME280;32338;50.430;6.806;2023-08-06T02:01:50;66779.50;;;12.53;100.00
46614;BME280;32338;50.430;6.806;2023-08-06T02:04:16;66785.88;;;12.54;100.00
46614;BME280;32338;50.430;6.806;2023-08-06T02:06:43;66778.72;;;12.50;100.00
46614;BME280;32338;50.430;6.806;2023-08-06T02:09:10;66775.16;;;12.44;100.00
46614;BME280;32338;50.430;6.806;2023-08-06T02:11:37;66774.19;;;12.39;100.00
46614;BME280;32338;50.430;6.806;2023-08-06T02:14:04;66769.88;;;12.37;100.00
46614;BME280;32338;50.430;6.806;2023-08-06T02:16:30;66763.47;;;12.29;100.00
46614;BME280;32338;50.430;6.806;2023-08-06T02:18:57;66758.03;;;12.26;100.00
46614;BME280;32338;50.430;6.806;2023-08-06T02:21:24;66771.00;;;12.38;100.00
46614;BME280;32338;50.430;6.806;2023-08-06T02:23:50;66769.88;;;12.37;100.00
46614;BME280;32338;50.430;6.806;2023-08-06T02:26:17;66764.44;;;12.35;100.00
46614;BME280;32338;50.430;6.806;2023-08-06T02:28:45;66755.00;;;12.21;100.00
46614;BME280;32338;50.430;6.806;2023-08-06T02:31:11;66736.22;;;12.09;100.00
46614;BME280;32338;50.430;6.806;2023-08-06T02:33:38;66737.34;;;12.10;100.00
46614;BME280;32338;50.430;6.806;2023-08-06T02:36:04;66738.28;;;12.08;100.00
46614;BME280;32338;50.430;6.806;2023-08-06T02:38:31;66730.56;;;12.04;100.00
46614;BME280;32338;50.430;6.806;2023-08-06T02:40:58;66734.50;;;12.00;100.00
46614;BME280;32338;50.430;6.806;2023-08-06T02:43:24;66733.94;;;12.07;100.00
46614;BME280;32338;50.430;6.806;2023-08-06T02:45:56;66729.25;;;12.00;100.00
46614;BME280;32338;50.430;6.806;2023-08-06T02:48:23;66720.03;;;11.96;100.00
46614;BME280;32338;50.430;6.806;2023-08-06T02:50:50;66738.09;;;12.06;100.00
46614;BME280;32338;50.430;6.806;2023-08-06T02:53:16;66740.53;;;12.10;100.00
46614;BME280;32338;50.430;6.806;2023-08-06T02:55:45;66726.44;;;11.97;100.00
46614;BME280;32338;50.430;6.806;2023-08-06T02:58:13;66741.31;;;12.13;100.00
46614;BME280;32338;50.430;6.806;2023-08-06T03:00:39;66726.06;;;11.99;100.00
46614;BME280;32338;50.430;6.806;2023-08-06T03:03:07;66725.31;;;11.96;100.00
46614;BME280;32338;50.430;6.806;2023-08-06T03:05:33;66735.09;;;12.08;100.00
46614;BME280;32338;50.430;6.806;2023-08-06T03:08:00;66736.22;;;12.09;100.00
46614;BME280;32338;50.430;6.806;2023-08-06T03:10:27;66729.44;;;12.03;100.00
46614;BME280;32338;50.430;6.806;2023-08-06T03:12:53;66735.47;;;12.06;100.00
46614;BME280;32338;50.430;6.806;2023-08-06T03:15:20;66742.25;;;12.12;100.00
46614;BME280;32338;50.430;6.806;2023-08-06T03:17:46;66753.53;;;12.22;100.00
46614;BME280;32338;50.430;6.806;2023-08-06T03:20:14;66749.75;;;12.21;100.00
46614;BME280;32338;50.430;6.806;2023-08-06T03:22:41;66750.31;;;12.22;100.00
46614;BME280;32338;50.430;6.806;2023-08-06T03:25:08;66759.00;;;12.32;100.00
46614;BME280;32338;50.430;6.806;2023-08-06T03:27:34;66747.69;;;12.14;100.00
46614;BME280;32338;50.430;6.806;2023-08-06T03:30:01;66743.94;;;12.13;100.00
46614;BME280;32338;50.430;6.806;2023-08-06T03:32:27;66748.44;;;12.18;100.00
46614;BME280;32338;50.430;6.806;2023-08-06T03:34:54;66746.75;;;12.16;100.00
46614;BME280;32338;50.430;6.806;2023-08-06T03:37:22;66735.09;;;12.08;100.00
46614;BME280;32338;50.430;6.806;2023-08-06T03:39:48;66739.41;;;12.16;100.00
46614;BME280;32338;50.430;6.806;2023-08-06T03:42:15;66739.78;;;12.07;100.00
46614;BME280;32338;50.430;6.806;2023-08-06T03:44:41;66732.47;;;12.08;100.00
46614;BME280;32338;50.430;6.806;2023-08-06T03:47:08;66741.66;;;12.11;100.00
46614;BME280;32338;50.430;6.806;2023-08-06T03:49:35;66743.34;;;12.13;100.00
46614;BME280;32338;50.430;6.806;2023-08-06T03:52:01;66738.84;;;12.09;100.00
46614;BME280;32338;50.430;6.806;2023-08-06T03:54:29;66733.03;;;12.08;100.00
46614;BME280;32338;50.430;6.806;2023-08-06T03:56:56;66735.47;;;12.06;100.00
46614;BME280;32338;50.430;6.806;2023-08-06T03:59:22;66739.97;;;12.10;100.00
46614;BME280;32338;50.430;6.806;2023-08-06T04:01:49;66742.78;;;12.12;100.00
46614;BME280;32338;50.430;6.806;2023-08-06T04:04:15;66739.22;;;12.07;100.00
46614;BME280;32338;50.430;6.806;2023-08-06T04:06:42;66741.09;;;12.11;100.00
46614;BME280;32338;50.430;6.806;2023-08-06T04:09:09;66736.03;;;12.06;100.00
46614;BME280;32338;50.430;6.806;2023-08-06T04:11:36;66741.09;;;12.11;100.00
46614;BME280;32338;50.430;6.806;2023-08-06T04:14:03;66745.44;;;12.12;100.00
46614;BME280;32338;50.430;6.806;2023-08-06T04:16:30;66746.94;;;12.19;100.00
46614;BME280;32338;50.430;6.806;2023-08-06T04:18:56;66738.47;;;12.11;100.00
46614;BME280;32338;50.430;6.806;2023-08-06T04:21:23;66735.84;;;12.04;100.00
46614;BME280;32338;50.430;6.806;2023-08-06T04:23:50;66724.00;;;12.00;100.00
46614;BME280;32338;50.430;6.806;2023-08-06T04:26:16;66730.75;;;11.99;100.00
46614;BME280;32338;50.430;6.806;2023-08-06T04:28:44;66725.69;;;12.02;100.00
46614;BME280;32338;50.430;6.806;2023-08-06T04:31:11;66727.00;;;11.98;100.00
46614;BME280;32338;50.430;6.806;2023-08-06T04:33:37;66726.63;;;12.00;100.00
46614;BME280;32338;50.430;6.806;2023-08-06T04:36:04;66736.19;;;12.02;100.00
46614;BME280;32338;50.430;6.806;2023-08-06T04:38:31;66734.91;;;12.05;100.00
46614;BME280;32338;50.430;6.806;2023-08-06T04:40:57;66731.53;;;12.02;100.00
46614;BME280;32338;50.430;6.806;2023-08-06T04:43:24;66734.16;;;12.02;100.00
46614;BME280;32338;50.430;6.806;2023-08-06T04:45:54;66733.75;;;12.04;100.00
46614;BME280;32338;50.430;6.806;2023-08-06T04:48:21;66731.72;;;12.05;100.00
46614;BME280;32338;50.430;6.806;2023-08-06T04:50:49;66740.16;;;12.12;100.00
46614;BME280;32338;50.430;6.806;2023-08-06T04:53:16;66739.03;;;12.11;100.00
46614;BME280;32338;50.430;6.806;2023-08-06T04:55:43;66745.25;;;12.17;100.00
46614;BME280;32338;50.430;6.806;2023-08-06T04:58:10;66744.66;;;12.09;100.00
46614;BME280;32338;50.430;6.806;2023-08-06T05:00:37;66742.25;;;12.12;100.00
46614;BME280;32338;50.430;6.806;2023-08-06T05:03:05;66736.22;;;12.09;100.00
46614;BME280;32338;50.430;6.806;2023-08-06T05:05:32;66737.91;;;12.10;100.00
46614;BME280;32338;50.430;6.806;2023-08-06T05:07:59;66732.84;;;12.06;100.00
46614;BME280;32338;50.430;6.806;2023-08-06T05:10:25;66734.53;;;12.07;100.00
46614;BME280;32338;50.430;6.806;2023-08-06T05:12:52;66735.09;;;12.08;100.00
46614;BME280;32338;50.430;6.806;2023-08-06T05:15:19;66732.47;;;12.08;100.00
46614;BME280;32338;50.430;6.806;2023-08-06T05:17:46;66738.28;;;12.08;100.00
46614;BME280;32338;50.430;6.806;2023-08-06T05:20:14;66734.53;;;12.07;100.00
46614;BME280;32338;50.430;6.806;2023-08-06T05:22:41;66730.78;;;12.06;100.00
46614;BME280;32338;50.430;6.806;2023-08-06T05:25:08;66735.66;;;12.08;100.00
46614;BME280;32338;50.430;6.806;2023-08-06T05:27:34;66744.69;;;12.16;100.00
46614;BME280;32338;50.430;6.806;2023-08-06T05:30:01;66743.53;;;12.15;100.00
46614;BME280;32338;50.430;6.806;2023-08-06T05:32:27;66745.63;;;12.15;100.00
46614;BME280;32338;50.430;6.806;2023-08-06T05:34:54;66744.69;;;12.16;100.00
46614;BME280;32338;50.430;6.806;2023-08-06T05:37:22;66750.69;;;12.20;100.00
46614;BME280;32338;50.430;6.806;2023-08-06T05:39:48;66747.69;;;12.22;100.00
46614;BME280;32338;50.430;6.806;2023-08-06T05:42:15;66751.63;;;12.18;100.00
46614;BME280;32338;50.430;6.806;2023-08-06T05:44:42;66749.56;;;12.19;100.00
46614;BME280;32338;50.430;6.806;2023-08-06T05:47:09;66749.56;;;12.19;100.00
46614;BME280;32338;50.430;6.806;2023-08-06T05:49:35;66753.88;;;12.20;100.00
46614;BME280;32338;50.430;6.806;2023-08-06T05:52:02;66754.25;;;12.25;100.00
46614;BME280;32338;50.430;6.806;2023-08-06T05:54:32;66755.22;;;12.24;100.00
46614;BME280;32338;50.430;6.806;2023-08-06T05:56:59;66763.66;;;12.31;100.00
46614;BME280;32338;50.430;6.806;2023-08-06T05:59:25;66772.31;;;12.42;100.00
46614;BME280;32338;50.430;6.806;2023-08-06T06:01:52;66772.72;;;12.40;100.00
46614;BME280;32338;50.430;6.806;2023-08-06T06:04:18;66771.00;;;12.38;100.00
46614;BME280;32338;50.430;6.806;2023-08-06T06:06:45;66774.94;;;12.42;100.00
46614;BME280;32338;50.430;6.806;2023-08-06T06:09:12;66770.81;;;12.43;100.00
46614;BME280;32338;50.430;6.806;2023-08-06T06:11:39;66780.41;;;12.44;100.00
46614;BME280;32338;50.430;6.806;2023-08-06T06:14:06;66774.03;;;12.43;100.00
46614;BME280;32338;50.430;6.806;2023-08-06T06:16:33;66777.22;;;12.44;100.00
46614;BME280;32338;50.430;6.806;2023-08-06T06:19:00;66782.84;;;12.49;100.00
46614;BME280;32338;50.430;6.806;2023-08-06T06:21:27;66782.31;;;12.48;100.00
46614;BME280;32338;50.430;6.806;2023-08-06T06:23:53;66766.69;;;12.37;100.00
46614;BME280;32338;50.430;6.806;2023-08-06T06:26:20;66760.28;;;12.28;100.00
46614;BME280;32338;50.430;6.806;2023-08-06T06:28:47;66770.44;;;12.38;100.00
46614;BME280;32338;50.430;6.806;2023-08-06T06:31:14;66771.22;;;12.41;100.00
46614;BME280;32338;50.430;6.806;2023-08-06T06:33:41;66780.59;;;12.47;100.00
46614;BME280;32338;50.430;6.806;2023-08-06T06:36:07;66793.38;;;12.56;100.00
46614;BME280;32338;50.430;6.806;2023-08-06T06:38:35;66801.69;;;12.69;100.00
46614;BME280;32338;50.430;6.806;2023-08-06T06:41:02;66802.81;;;12.70;100.00
46614;BME280;32338;50.430;6.806;2023-08-06T06:43:29;66815.03;;;12.78;100.00
46614;BME280;32338;50.430;6.806;2023-08-06T06:45:57;66819.56;;;12.82;100.00
46614;BME280;32338;50.430;6.806;2023-08-06T06:48:25;66833.09;;;12.95;100.00
46614;BME280;32338;50.430;6.806;2023-08-06T06:50:52;66842.13;;;13.03;100.00
46614;BME280;32338;50.430;6.806;2023-08-06T06:53:18;66849.47;;;13.10;100.00
46614;BME280;32338;50.430;6.806;2023-08-06T06:55:45;66852.31;;;13.12;100.00
46614;BME280;32338;50.430;6.806;2023-08-06T06:58:14;66864.91;;;13.19;100.00
46614;BME280;32338;50.430;6.806;2023-08-06T07:00:41;66863.03;;;13.22;100.00
46614;BME280;32338;50.430;6.806;2023-08-06T07:03:09;66855.88;;;13.18;100.00
46614;BME280;32338;50.430;6.806;2023-08-06T07:05:35;66864.91;;;13.26;100.00
46614;BME280;32338;50.430;6.806;2023-08-06T07:08:02;66859.63;;;13.19;100.00
46614;BME280;32338;50.430;6.806;2023-08-06T07:10:28;66865.28;;;13.24;100.00
46614;BME280;32338;50.430;6.806;2023-08-06T07:12:55;66860.59;;;13.25;100.00
46614;BME280;32338;50.430;6.806;2023-08-06T07:15:21;66874.50;;;13.35;100.00
46614;BME280;32338;50.430;6.806;2023-08-06T07:17:48;66873.19;;;13.32;100.00
46614;BME280;32338;50.430;6.806;2023-08-06T07:20:16;66874.31;;;13.33;100.00
46614;BME280;32338;50.430;6.806;2023-08-06T07:22:43;66868.69;;;13.27;100.00
46614;BME280;32338;50.430;6.806;2023-08-06T07:25:10;66861.91;;;13.21;100.00
46614;BME280;32338;50.430;6.806;2023-08-06T07:27:36;66859.63;;;13.19;100.00
46614;BME280;32338;50.430;6.806;2023-08-06T07:30:04;66862.47;;;13.22;100.00
46614;BME280;32338;50.430;6.806;2023-08-06T07:32:31;66860.97;;;13.23;100.00
46614;BME280;32338;50.430;6.806;2023-08-06T07:34:57;66859.25;;;13.21;100.00
46614;BME280;32338;50.430;6.806;2023-08-06T07:37:27;66865.09;;;13.22;100.00
46614;BME280;32338;50.430;6.806;2023-08-06T07:39:54;66869.03;;;13.25;100.00
46614;BME280;32338;50.430;6.806;2023-08-06T07:42:21;66867.72;;;13.29;100.00
46614;BME280;32338;50.430;6.806;2023-08-06T07:44:51;66880.19;;;13.40;100.00
46614;BME280;32338;50.430;6.806;2023-08-06T07:47:18;66884.69;;;13.44;100.00
46614;BME280;32338;50.430;6.806;2023-08-06T07:49:45;66887.91;;;13.45;100.00
46614;BME280;32338;50.430;6.806;2023-08-06T07:52:11;66908.78;;;13.64;100.00
46614;BME280;32338;50.430;6.806;2023-08-06T07:54:39;66914.25;;;13.74;100.00
46614;BME280;32338;50.430;6.806;2023-08-06T07:57:06;66922.00;;;13.78;100.00
46614;BME280;32338;50.430;6.806;2023-08-06T07:59:32;66926.31;;;13.80;100.00
46614;BME280;32338;50.430;6.806;2023-08-06T08:02:00;66916.13;;;13.71;100.00
46614;BME280;32338;50.430;6.806;2023-08-06T08:04:26;66908.59;;;13.61;100.00
46614;BME280;32338;50.430;6.806;2023-08-06T08:06:53;66913.31;;;13.68;100.00
46614;BME280;32338;50.430;6.806;2023-08-06T08:09:19;66914.25;;;13.67;100.00
46614;BME280;32338;50.430;6.806;2023-08-06T08:11:47;66926.31;;;13.80;100.00
46614;BME280;32338;50.430;6.806;2023-08-06T08:14:14;66926.13;;;13.85;100.00
46614;BME280;32338;50.430;6.806;2023-08-06T08:16:41;66927.81;;;13.86;100.00
46614;BME280;32338;50.430;6.806;2023-08-06T08:19:07;66923.09;;;13.79;100.00
46614;BME280;32338;50.430;6.806;2023-08-06T08:21:34;66917.28;;;13.72;100.00
46614;BME280;32338;50.430;6.806;2023-08-06T08:24:00;66909.38;;;13.65;100.00
46614;BME280;32338;50.430;6.806;2023-08-06T08:26:27;66904.84;;;13.60;100.00
46614;BME280;32338;50.430;6.806;2023-08-06T08:28:56;66908.59;;;13.61;100.00
46614;BME280;32338;50.430;6.806;2023-08-06T08:31:23;66891.47;;;13.51;100.00
46614;BME280;32338;50.430;6.806;2023-08-06T08:33:49;66876.81;;;13.37;100.00
46614;BME280;32338;50.430;6.806;2023-08-06T08:36:16;66870.72;;;13.27;100.00
46614;BME280;32338;50.430;6.806;2023-08-06T08:38:42;66851.53;;;13.17;100.00
46614;BME280;32338;50.430;6.806;2023-08-06T08:41:10;66853.22;;;13.18;100.00
46614;BME280;32338;50.430;6.806;2023-08-06T08:43:37;66837.06;;;13.06;100.00
46614;BME280;32338;50.430;6.806;2023-08-06T08:46:07;66837.06;;;12.98;100.00
46614;BME280;32338;50.430;6.806;2023-08-06T08:48:35;66840.81;;;13.00;100.00
46614;BME280;32338;50.430;6.806;2023-08-06T08:51:02;66830.84;;;12.93;100.00
46614;BME280;32338;50.430;6.806;2023-08-06T08:53:30;66819.75;;;12.85;100.00
46614;BME280;32338;50.430;6.806;2023-08-06T08:55:56;66809.94;;;12.74;100.00
46614;BME280;32338;50.430;6.806;2023-08-06T08:58:23;66795.09;;;12.65;100.00
46614;BME280;32338;50.430;6.806;2023-08-06T09:00:50;66787.94;;;12.54;100.00
46614;BME280;32338;50.430;6.806;2023-08-06T09:03:20;66769.69;;;12.42;100.00
46614;BME280;32338;50.430;6.806;2023-08-06T09:05:50;66760.28;;;12.28;100.00
46614;BME280;32338;50.430;6.806;2023-08-06T09:08:20;66761.78;;;12.27;100.00
46614;BME280;32338;50.430;6.806;2023-08-06T09:10:48;66752.38;;;12.21;100.00
46614;BME280;32338;50.430;6.806;2023-08-06T09:13:15;66764.81;;;12.32;100.00
46614;BME280;32338;50.430;6.806;2023-08-06T09:15:42;66780.03;;;12.46;100.00
46614;BME280;32338;50.430;6.806;2023-08-06T09:18:10;66774.03;;;12.43;100.00
46614;BME280;32338;50.430;6.806;2023-08-06T09:20:38;66782.31;;;12.56;100.00
46614;BME280;32338;50.430;6.806;2023-08-06T09:23:07;66776.66;;;12.43;100.00
46614;BME280;32338;50.430;6.806;2023-08-06T09:25:38;66776.28;;;12.45;100.00
46614;BME280;32338;50.430;6.806;2023-08-06T09:28:04;66778.91;;;12.45;100.00
46614;BME280;32338;50.430;6.806;2023-08-06T09:30:32;66785.88;;;12.54;100.00
46614;BME280;32338;50.430;6.806;2023-08-06T09:32:59;66785.69;;;12.52;100.00
46614;BME280;32338;50.430;6.806;2023-08-06T09:35:28;66774.22;;;12.46;100.00
46614;BME280;32338;50.430;6.806;2023-08-06T09:38:05;66777.41;;;12.46;100.00
46614;BME280;32338;50.430;6.806;2023-08-06T09:40:33;66787.94;;;12.54;100.00
46614;BME280;32338;50.430;6.806;2023-08-06T09:43:00;66778.72;;;12.50;100.00
46614;BME280;32338;50.430;6.806;2023-08-06T09:45:29;66786.44;;;12.47;100.00
46614;BME280;32338;50.430;6.806;2023-08-06T09:47:57;66772.13;;;12.39;100.00
46614;BME280;32338;50.430;6.806;2023-08-06T09:50:28;66758.59;;;12.27;100.00
46614;BME280;32338;50.430;6.806;2023-08-06T09:52:57;66766.69;;;12.37;100.00
46614;BME280;32338;50.430;6.806;2023-08-06T09:55:24;66757.66;;;12.28;100.00
46614;BME280;32338;50.430;6.806;2023-08-06T09:57:52;66757.66;;;12.28;100.00
46614;BME280;32338;50.430;6.806;2023-08-06T10:00:19;66763.31;;;12.33;100.00
46614;BME280;32338;50.430;6.806;2023-08-06T10:02:46;66773.84;;;12.41;100.00
46614;BME280;32338;50.430;6.806;2023-08-06T10:05:14;66777.78;;;12.44;100.00
46614;BME280;32338;50.430;6.806;2023-08-06T10:07:42;66790.41;;;12.58;100.00
46614;BME280;32338;50.430;6.806;2023-08-06T10:10:11;66805.44;;;12.70;100.00
46614;BME280;32338;50.430;6.806;2023-08-06T10:12:40;66811.09;;;12.75;100.00
46614;BME280;32338;50.430;6.806;2023-08-06T10:15:11;66820.88;;;12.86;100.00
46614;BME280;32338;50.430;6.806;2023-08-06T10:17:39;66826.31;;;12.89;100.00
46614;BME280;32338;50.430;6.806;2023-08-06T10:20:08;66825.78;;;12.88;100.00
46614;BME280;32338;50.430;6.806;2023-08-06T10:22:35;66824.63;;;12.87;100.00
46614;BME280;32338;50.430;6.806;2023-08-06T10:25:02;66811.47;;;12.80;100.00
46614;BME280;32338;50.430;6.806;2023-08-06T10:27:33;66822.75;;;12.90;100.00
46614;BME280;32338;50.430;6.806;2023-08-06T10:30:22;66847.78;;;13.08;100.00
46614;BME280;32338;50.430;6.806;2023-08-06T10:32:49;66842.34;;;13.06;100.00
46614;BME280;32338;50.430;6.806;2023-08-06T10:35:35;66856.81;;;13.17;100.00
46614;BME280;32338;50.430;6.806;2023-08-06T10:38:08;66869.41;;;13.30;100.00
46614;BME280;32338;50.430;6.806;2023-08-06T10:40:35;66861.72;;;13.26;100.00
46614;BME280;32338;50.430;6.806;2023-08-06T10:43:04;66851.34;;;13.14;100.00
46614;BME280;32338;50.430;6.806;2023-08-06T10:45:35;66860.97;;;13.23;100.00
46614;BME280;32338;50.430;6.806;2023-08-06T10:48:02;66861.53;;;13.23;100.00
46614;BME280;32338;50.430;6.806;2023-08-06T10:50:29;66848.72;;;13.14;100.00
46614;BME280;32338;50.430;6.806;2023-08-06T10:52:57;66840.44;;;13.02;100.00
46614;BME280;32338;50.430;6.806;2023-08-06T10:55:25;66829.34;;;12.94;100.00
46614;BME280;32338;50.430;6.806;2023-08-06T10:57:53;66819.34;;;12.80;100.00
46614;BME280;32338;50.430;6.806;2023-08-06T11:00:22;66796.22;;;12.66;100.00
46614;BME280;32338;50.430;6.806;2023-08-06T11:02:49;66797.16;;;12.64;100.00
46614;BME280;32338;50.430;6.806;2023-08-06T11:05:16;66789.44;;;12.60;100.00
46614;BME280;32338;50.430;6.806;2023-08-06T11:07:43;66798.28;;;12.65;100.00
46614;BME280;32338;50.430;6.806;2023-08-06T11:10:11;66793.59;;;12.59;100.00
46614;BME280;32338;50.430;6.806;2023-08-06T11:12:39;66796.03;;;12.63;100.00
46614;BME280;32338;50.430;6.806;2023-08-06T11:15:06;66802.63;;;12.67;100.00
46614;BME280;32338;50.430;6.806;2023-08-06T11:17:35;66795.66;;;12.65;100.00
46614;BME280;32338;50.430;6.806;2023-08-06T11:20:02;66807.13;;;12.71;100.00
46614;BME280;32338;50.430;6.806;2023-08-06T11:22:29;66820.09;;;12.83;100.00
46614;BME280;32338;50.430;6.806;2023-08-06T11:24:56;66816.56;;;12.85;100.00
46614;BME280;32338;50.430;6.806;2023-08-06T11:27:25;66813.53;;;12.79;100.00
46614;BME280;32338;50.430;6.806;2023-08-06T11:29:52;66810.50;;;12.74;100.00
46614;BME280;32338;50.430;6.806;2023-08-06T11:32:19;66810.69;;;12.77;100.00
46614;BME280;32338;50.430;6.806;2023-08-06T11:34:46;66818.59;;;12.84;100.00
46614;BME280;32338;50.430;6.806;2023-08-06T11:37:13;66813.72;;;12.75;100.00
46614;BME280;32338;50.430;6.806;2023-08-06T11:39:47;66813.34;;;12.77;100.00
46614;BME280;32338;50.430;6.806;2023-08-06T11:42:14;66815.78;;;12.81;100.00
46614;BME280;32338;50.430;6.806;2023-08-06T11:44:44;66815.59;;;12.79;100.00
46614;BME280;32338;50.430;6.806;2023-08-06T11:47:13;66809.00;;;12.75;100.00
46614;BME280;32338;50.430;6.806;2023-08-06T11:49:42;66801.69;;;12.69;100.00
46614;BME280;32338;50.430;6.806;2023-08-06T11:52:14;66795.66;;;12.58;100.00
46614;BME280;32338;50.430;6.806;2023-08-06T11:54:41;66787.56;;;12.56;100.00
46614;BME280;32338;50.430;6.806;2023-08-06T11:57:07;66790.41;;;12.58;100.00
46614;BME280;32338;50.430;6.806;2023-08-06T11:59:38;66791.72;;;12.62;100.00
46614;BME280;32338;50.430;6.806;2023-08-06T12:02:05;66793.59;;;12.59;100.00
46614;BME280;32338;50.430;6.806;2023-08-06T12:04:59;66789.63;;;12.55;100.00
46614;BME280;32338;50.430;6.806;2023-08-06T12:07:28;66790.41;;;12.58;100.00
46614;BME280;32338;50.430;6.806;2023-08-06T12:09:55;66799.41;;;12.67;100.00
46614;BME280;32338;50.430;6.806;2023-08-06T12:12:21;66805.44;;;12.70;100.00
46614;BME280;32338;50.430;6.806;2023-08-06T12:14:48;66799.03;;;12.69;100.00
46614;BME280;32338;50.430;6.806;2023-08-06T12:17:15;66801.88;;;12.71;100.00
46614;BME280;32338;50.430;6.806;2023-08-06T12:19:41;66808.47;;;12.75;100.00
46614;BME280;32338;50.430;6.806;2023-08-06T12:22:08;66811.63;;;12.75;100.00
46614;BME280;32338;50.430;6.806;2023-08-06T12:24:36;66824.44;;;12.85;100.00
46614;BME280;32338;50.430;6.806;2023-08-06T12:27:03;66822.94;;;12.86;100.00
46614;BME280;32338;50.430;6.806;2023-08-06T12:29:29;66842.34;;;13.06;100.00
46614;BME280;32338;50.430;6.806;2023-08-06T12:31:56;66842.88;;;13.06;100.00
46614;BME280;32338;50.430;6.806;2023-08-06T12:34:23;66853.44;;;13.13;100.00
46614;BME280;32338;50.430;6.806;2023-08-06T12:36:49;66848.34;;;13.09;100.00
46614;BME280;32338;50.430;6.806;2023-08-06T12:39:16;66841.19;;;13.05;100.00
46614;BME280;32338;50.430;6.806;2023-08-06T12:41:43;66836.66;;;13.01;100.00
46614;BME280;32338;50.430;6.806;2023-08-06T12:44:11;66846.06;;;13.07;100.00
46614;BME280;32338;50.430;6.806;2023-08-06T12:46:37;66840.25;;;13.06;100.00
46614;BME280;32338;50.430;6.806;2023-08-06T12:49:04;66840.06;;;13.04;100.00
46614;BME280;32338;50.430;6.806;2023-08-06T12:51:31;66839.69;;;13.06;100.00